Terminal Aerodrome Forecast
Issued by NWS

Home | Current Version | Previous Version | Text Only | Print | Product List | Glossary On
Versions: 1 2 3 4 5 6 7 8 9 10 11 12 13 14 15
000
FTUS45 KLKN 190104 AAA
TAFEKO
TAF AMD
KEKO 190104Z 1901/1924 08007KT P6SM -SHSN SCT030 OVC050
      TEMPO 1901/1903 3SM -SN OVC030
     FM190300 11010KT 2SM -SN OVC015
     FM191600 23006KT P6SM VCSH OVC040=

USA.gov is the U.S. government's official web portal to all federal, state and local government web resources and services.